sensor_id;sensor_type;location;lat;lon;timestamp;temperature;humidity
33139;DHT22;19501;50.948;5.316;2024-03-23T00:55:42;7.40;99.90
33139;DHT22;19501;50.948;5.316;2024-03-23T00:58:08;7.50;99.90
33139;DHT22;19501;50.948;5.316;2024-03-23T01:00:33;7.50;99.90
33139;DHT22;19501;50.948;5.316;2024-03-23T01:03:01;7.50;99.90
33139;DHT22;19501;50.948;5.316;2024-03-23T01:05:27;7.70;99.90
33139;DHT22;19501;50.948;5.316;2024-03-23T01:07:52;7.80;99.90
33139;DHT22;19501;50.948;5.316;2024-03-23T01:10:18;7.80;99.90
33139;DHT22;19501;50.948;5.316;2024-03-23T01:12:44;7.90;99.90
33139;DHT22;19501;50.948;5.316;2024-03-23T01:15:09;7.90;99.90
33139;DHT22;19501;50.948;5.316;2024-03-23T01:17:35;8.10;99.90
33139;DHT22;19501;50.948;5.316;2024-03-23T01:20:01;8.20;99.90
33139;DHT22;19501;50.948;5.316;2024-03-23T01:22:26;8.10;99.90
33139;DHT22;19501;50.948;5.316;2024-03-23T01:24:52;7.90;99.90
33139;DHT22;19501;50.948;5.316;2024-03-23T01:27:17;8.00;99.90
33139;DHT22;19501;50.948;5.316;2024-03-23T01:29:43;8.00;99.90
33139;DHT22;19501;50.948;5.316;2024-03-23T01:32:09;8.10;99.90
33139;DHT22;19501;50.948;5.316;2024-03-23T01:34:35;8.10;99.90
33139;DHT22;19501;50.948;5.316;2024-03-23T01:37:01;8.10;99.90
33139;DHT22;19501;50.948;5.316;2024-03-23T01:39:26;7.80;99.90
33139;DHT22;19501;50.948;5.316;2024-03-23T01:41:52;8.00;99.90
33139;DHT22;19501;50.948;5.316;2024-03-23T01:44:18;7.90;99.90
33139;DHT22;19501;50.948;5.316;2024-03-23T01:46:44;7.80;99.90
33139;DHT22;19501;50.948;5.316;2024-03-23T01:49:10;7.80;99.90
33139;DHT22;19501;50.948;5.316;2024-03-23T01:51:36;7.80;99.90
33139;DHT22;19501;50.948;5.316;2024-03-23T01:54:03;7.70;99.90
33139;DHT22;19501;50.948;5.316;2024-03-23T01:56:30;7.60;99.90
33139;DHT22;19501;50.948;5.316;2024-03-23T01:58:58;7.70;99.90
33139;DHT22;19501;50.948;5.316;2024-03-23T02:01:26;7.80;99.90
33139;DHT22;19501;50.948;5.316;2024-03-23T02:03:52;7.90;99.90
33139;DHT22;19501;50.948;5.316;2024-03-23T02:06:17;7.70;99.90
33139;DHT22;19501;50.948;5.316;2024-03-23T02:08:43;7.60;99.90
33139;DHT22;19501;50.948;5.316;2024-03-23T02:11:09;7.60;99.90
33139;DHT22;19501;50.948;5.316;2024-03-23T02:13:35;7.60;99.90
33139;DHT22;19501;50.948;5.316;2024-03-23T02:16:01;7.50;99.90
33139;DHT22;19501;50.948;5.316;2024-03-23T02:18:26;7.60;99.90
33139;DHT22;19501;50.948;5.316;2024-03-23T02:20:52;7.60;99.90
33139;DHT22;19501;50.948;5.316;2024-03-23T02:23:18;7.60;99.90
33139;DHT22;19501;50.948;5.316;2024-03-23T02:25:44;7.50;99.90
33139;DHT22;19501;50.948;5.316;2024-03-23T02:28:10;7.50;99.90
33139;DHT22;19501;50.948;5.316;2024-03-23T02:30:36;7.50;99.90
33139;DHT22;19501;50.948;5.316;2024-03-23T02:33:03;7.40;99.90
33139;DHT22;19501;50.948;5.316;2024-03-23T02:35:29;7.40;99.90
33139;DHT22;19501;50.948;5.316;2024-03-23T02:37:54;7.30;99.90
33139;DHT22;19501;50.948;5.316;2024-03-23T02:40:22;7.20;99.90
33139;DHT22;19501;50.948;5.316;2024-03-23T02:42:48;7.00;99.90
33139;DHT22;19501;50.948;5.316;2024-03-23T02:45:14;7.00;99.90
33139;DHT22;19501;50.948;5.316;2024-03-23T02:47:39;6.80;99.90
33139;DHT22;19501;50.948;5.316;2024-03-23T02:50:05;6.80;99.90
33139;DHT22;19501;50.948;5.316;2024-03-23T02:52:31;6.90;99.90
33139;DHT22;19501;50.948;5.316;2024-03-23T02:54:57;7.10;99.90
33139;DHT22;19501;50.948;5.316;2024-03-23T02:57:23;7.20;99.90
33139;DHT22;19501;50.948;5.316;2024-03-23T02:59:48;7.20;99.90
33139;DHT22;19501;50.948;5.316;2024-03-23T03:02:15;7.20;99.90
33139;DHT22;19501;50.948;5.316;2024-03-23T03:04:41;7.30;99.90
33139;DHT22;19501;50.948;5.316;2024-03-23T03:07:06;7.30;99.90
33139;DHT22;19501;50.948;5.316;2024-03-23T03:09:32;7.40;99.90
33139;DHT22;19501;50.948;5.316;2024-03-23T03:11:58;7.50;99.90
33139;DHT22;19501;50.948;5.316;2024-03-23T03:14:24;7.50;99.90
33139;DHT22;19501;50.948;5.316;2024-03-23T03:16:49;7.50;99.90
33139;DHT22;19501;50.948;5.316;2024-03-23T03:19:15;7.50;99.90
33139;DHT22;19501;50.948;5.316;2024-03-23T03:21:42;7.50;99.90
33139;DHT22;19501;50.948;5.316;2024-03-23T03:24:07;7.60;99.90
33139;DHT22;19501;50.948;5.316;2024-03-23T03:26:33;7.60;99.90
33139;DHT22;19501;50.948;5.316;2024-03-23T03:28:59;7.50;99.90
33139;DHT22;19501;50.948;5.316;2024-03-23T03:31:24;7.40;99.90
33139;DHT22;19501;50.948;5.316;2024-03-23T03:33:50;7.30;99.90
33139;DHT22;19501;50.948;5.316;2024-03-23T03:36:19;7.20;99.90
33139;DHT22;19501;50.948;5.316;2024-03-23T03:38:47;7.30;99.90
33139;DHT22;19501;50.948;5.316;2024-03-23T03:41:13;7.10;99.90
33139;DHT22;19501;50.948;5.316;2024-03-23T03:43:38;7.00;99.90
33139;DHT22;19501;50.948;5.316;2024-03-23T03:46:04;6.80;99.90
33139;DHT22;19501;50.948;5.316;2024-03-23T03:48:30;6.70;99.90
33139;DHT22;19501;50.948;5.316;2024-03-23T03:50:56;6.60;99.90
33139;DHT22;19501;50.948;5.316;2024-03-23T03:53:21;6.60;99.90
33139;DHT22;19501;50.948;5.316;2024-03-23T03:55:47;6.70;99.90
33139;DHT22;19501;50.948;5.316;2024-03-23T03:58:13;6.70;99.90
33139;DHT22;19501;50.948;5.316;2024-03-23T04:00:39;6.70;99.90
33139;DHT22;19501;50.948;5.316;2024-03-23T04:03:04;6.80;99.90
33139;DHT22;19501;50.948;5.316;2024-03-23T04:05:30;6.80;99.90
33139;DHT22;19501;50.948;5.316;2024-03-23T04:07:56;6.90;99.90
33139;DHT22;19501;50.948;5.316;2024-03-23T04:10:21;6.90;99.90
33139;DHT22;19501;50.948;5.316;2024-03-23T04:12:47;7.00;99.90
33139;DHT22;19501;50.948;5.316;2024-03-23T04:15:13;7.00;99.90
33139;DHT22;19501;50.948;5.316;2024-03-23T04:17:39;7.10;99.90
33139;DHT22;19501;50.948;5.316;2024-03-23T04:20:07;7.20;99.90
33139;DHT22;19501;50.948;5.316;2024-03-23T04:22:36;7.10;99.90
33139;DHT22;19501;50.948;5.316;2024-03-23T04:25:03;7.00;99.90
33139;DHT22;19501;50.948;5.316;2024-03-23T04:27:32;6.70;99.90
33139;DHT22;19501;50.948;5.316;2024-03-23T04:29:58;6.60;99.90
33139;DHT22;19501;50.948;5.316;2024-03-23T04:32:26;6.50;99.90
33139;DHT22;19501;50.948;5.316;2024-03-23T04:34:52;6.50;99.90
33139;DHT22;19501;50.948;5.316;2024-03-23T04:37:17;6.60;99.90
33139;DHT22;19501;50.948;5.316;2024-03-23T04:39:43;6.70;99.90
33139;DHT22;19501;50.948;5.316;2024-03-23T04:42:09;6.90;99.90
33139;DHT22;19501;50.948;5.316;2024-03-23T04:44:34;7.10;99.90
33139;DHT22;19501;50.948;5.316;2024-03-23T04:47:00;7.10;99.90
33139;DHT22;19501;50.948;5.316;2024-03-23T04:49:26;7.20;99.90
33139;DHT22;19501;50.948;5.316;2024-03-23T04:51:52;7.10;99.90
33139;DHT22;19501;50.948;5.316;2024-03-23T04:54:17;7.00;99.90
33139;DHT22;19501;50.948;5.316;2024-03-23T04:56:43;7.00;99.90
33139;DHT22;19501;50.948;5.316;2024-03-23T04:59:09;6.90;99.90
33139;DHT22;19501;50.948;5.316;2024-03-23T05:01:35;6.80;99.90
33139;DHT22;19501;50.948;5.316;2024-03-23T05:04:01;6.70;99.90
33139;DHT22;19501;50.948;5.316;2024-03-23T05:06:27;6.60;99.90
33139;DHT22;19501;50.948;5.316;2024-03-23T05:08:52;6.50;99.90
33139;DHT22;19501;50.948;5.316;2024-03-23T05:11:18;6.40;99.90
33139;DHT22;19501;50.948;5.316;2024-03-23T05:13:45;6.40;99.90
33139;DHT22;19501;50.948;5.316;2024-03-23T05:16:11;6.40;99.90
33139;DHT22;19501;50.948;5.316;2024-03-23T05:18:36;6.40;99.90
33139;DHT22;19501;50.948;5.316;2024-03-23T05:21:02;6.40;99.90
33139;DHT22;19501;50.948;5.316;2024-03-23T05:23:30;6.50;99.90
33139;DHT22;19501;50.948;5.316;2024-03-23T05:25:56;6.50;99.90
33139;DHT22;19501;50.948;5.316;2024-03-23T05:28:22;6.60;99.90
33139;DHT22;19501;50.948;5.316;2024-03-23T05:30:54;6.70;99.90
33139;DHT22;19501;50.948;5.316;2024-03-23T05:33:20;6.70;99.90
33139;DHT22;19501;50.948;5.316;2024-03-23T05:35:47;6.60;99.90
33139;DHT22;19501;50.948;5.316;2024-03-23T05:38:13;6.80;99.90
33139;DHT22;19501;50.948;5.316;2024-03-23T05:40:39;6.80;99.90
33139;DHT22;19501;50.948;5.316;2024-03-23T05:43:08;6.80;99.90
33139;DHT22;19501;50.948;5.316;2024-03-23T05:45:34;6.90;99.90
33139;DHT22;19501;50.948;5.316;2024-03-23T05:48:00;6.90;99.90
33139;DHT22;19501;50.948;5.316;2024-03-23T05:50:26;6.80;99.90
33139;DHT22;19501;50.948;5.316;2024-03-23T05:52:52;6.90;99.90
33139;DHT22;19501;50.948;5.316;2024-03-23T05:55:17;6.90;99.90
33139;DHT22;19501;50.948;5.316;2024-03-23T05:57:43;6.90;99.90
33139;DHT22;19501;50.948;5.316;2024-03-23T06:00:09;6.90;99.90
33139;DHT22;19501;50.948;5.316;2024-03-23T06:02:44;6.80;99.90
33139;DHT22;19501;50.948;5.316;2024-03-23T06:05:13;6.90;99.90
33139;DHT22;19501;50.948;5.316;2024-03-23T06:07:40;7.00;99.90
33139;DHT22;19501;50.948;5.316;2024-03-23T06:10:06;6.90;99.90
33139;DHT22;19501;50.948;5.316;2024-03-23T06:12:32;6.90;99.90
33139;DHT22;19501;50.948;5.316;2024-03-23T06:14:58;6.90;99.90
33139;DHT22;19501;50.948;5.316;2024-03-23T06:17:23;7.00;99.90
33139;DHT22;19501;50.948;5.316;2024-03-23T06:19:51;7.00;99.90
33139;DHT22;19501;50.948;5.316;2024-03-23T06:22:17;7.00;99.90
33139;DHT22;19501;50.948;5.316;2024-03-23T06:24:42;7.10;99.90
33139;DHT22;19501;50.948;5.316;2024-03-23T06:27:10;7.10;99.90
33139;DHT22;19501;50.948;5.316;2024-03-23T06:29:36;7.20;99.90
33139;DHT22;19501;50.948;5.316;2024-03-23T06:32:02;7.20;99.90
33139;DHT22;19501;50.948;5.316;2024-03-23T06:34:29;7.20;99.90
33139;DHT22;19501;50.948;5.316;2024-03-23T06:36:54;7.10;99.90
33139;DHT22;19501;50.948;5.316;2024-03-23T06:39:20;7.10;99.90
33139;DHT22;19501;50.948;5.316;2024-03-23T06:41:52;7.00;99.90
33139;DHT22;19501;50.948;5.316;2024-03-23T06:44:18;7.20;99.90
33139;DHT22;19501;50.948;5.316;2024-03-23T06:46:45;7.30;99.90
33139;DHT22;19501;50.948;5.316;2024-03-23T06:49:11;7.40;99.90
33139;DHT22;19501;50.948;5.316;2024-03-23T06:51:36;7.50;99.90
33139;DHT22;19501;50.948;5.316;2024-03-23T06:54:03;7.60;99.90
33139;DHT22;19501;50.948;5.316;2024-03-23T06:56:29;7.70;99.90
33139;DHT22;19501;50.948;5.316;2024-03-23T06:58:56;7.80;99.90
33139;DHT22;19501;50.948;5.316;2024-03-23T07:01:22;7.70;99.90
33139;DHT22;19501;50.948;5.316;2024-03-23T07:03:47;7.70;99.90
33139;DHT22;19501;50.948;5.316;2024-03-23T07:06:13;7.60;99.90
33139;DHT22;19501;50.948;5.316;2024-03-23T07:08:39;7.70;99.90
33139;DHT22;19501;50.948;5.316;2024-03-23T07:11:04;7.60;99.90
33139;DHT22;19501;50.948;5.316;2024-03-23T07:13:30;7.60;99.90
33139;DHT22;19501;50.948;5.316;2024-03-23T07:15:56;7.60;99.90
33139;DHT22;19501;50.948;5.316;2024-03-23T07:18:23;7.50;99.90
33139;DHT22;19501;50.948;5.316;2024-03-23T07:20:58;7.60;99.90
33139;DHT22;19501;50.948;5.316;2024-03-23T07:23:26;7.70;99.90
33139;DHT22;19501;50.948;5.316;2024-03-23T07:25:59;7.80;99.90
33139;DHT22;19501;50.948;5.316;2024-03-23T07:28:25;7.90;99.90
33139;DHT22;19501;50.948;5.316;2024-03-23T07:31:20;8.10;99.90
33139;DHT22;19501;50.948;5.316;2024-03-23T07:33:49;8.10;99.90
33139;DHT22;19501;50.948;5.316;2024-03-23T07:36:15;8.10;99.90
33139;DHT22;19501;50.948;5.316;2024-03-23T07:38:41;8.20;99.90
33139;DHT22;19501;50.948;5.316;2024-03-23T07:41:12;8.10;99.90
33139;DHT22;19501;50.948;5.316;2024-03-23T07:43:40;8.30;99.90
33139;DHT22;19501;50.948;5.316;2024-03-23T07:46:08;8.30;99.90
33139;DHT22;19501;50.948;5.316;2024-03-23T07:48:34;8.30;99.90
33139;DHT22;19501;50.948;5.316;2024-03-23T07:51:05;8.20;99.90
33139;DHT22;19501;50.948;5.316;2024-03-23T07:53:34;8.10;99.90
33139;DHT22;19501;50.948;5.316;2024-03-23T07:56:08;8.20;99.90
33139;DHT22;19501;50.948;5.316;2024-03-23T07:58:35;8.20;99.90
33139;DHT22;19501;50.948;5.316;2024-03-23T08:01:14;8.20;99.90
33139;DHT22;19501;50.948;5.316;2024-03-23T08:03:41;8.20;99.90
33139;DHT22;19501;50.948;5.316;2024-03-23T08:08:41;8.40;99.90
33139;DHT22;19501;50.948;5.316;2024-03-23T08:11:07;8.50;99.90
33139;DHT22;19501;50.948;5.316;2024-03-23T08:13:34;8.70;99.90
33139;DHT22;19501;50.948;5.316;2024-03-23T08:16:01;8.70;99.90
33139;DHT22;19501;50.948;5.316;2024-03-23T08:18:27;8.70;99.90
33139;DHT22;19501;50.948;5.316;2024-03-23T08:20:59;8.70;99.90
33139;DHT22;19501;50.948;5.316;2024-03-23T08:23:26;8.80;99.90
33139;DHT22;19501;50.948;5.316;2024-03-23T08:25:54;8.70;99.90
33139;DHT22;19501;50.948;5.316;2024-03-23T08:28:22;8.50;99.90
33139;DHT22;19501;50.948;5.316;2024-03-23T08:30:48;8.40;99.90
33139;DHT22;19501;50.948;5.316;2024-03-23T08:33:15;8.40;99.90
33139;DHT22;19501;50.948;5.316;2024-03-23T08:35:41;8.50;99.90
33139;DHT22;19501;50.948;5.316;2024-03-23T08:38:06;8.70;99.90
33139;DHT22;19501;50.948;5.316;2024-03-23T08:40:32;8.70;99.90
33139;DHT22;19501;50.948;5.316;2024-03-23T08:42:58;8.70;99.90
33139;DHT22;19501;50.948;5.316;2024-03-23T08:45:29;8.90;99.90
33139;DHT22;19501;50.948;5.316;2024-03-23T08:47:55;8.90;99.90
33139;DHT22;19501;50.948;5.316;2024-03-23T08:50:20;8.90;99.90
33139;DHT22;19501;50.948;5.316;2024-03-23T08:52:47;8.70;99.90
33139;DHT22;19501;50.948;5.316;2024-03-23T08:55:12;8.70;99.90
33139;DHT22;19501;50.948;5.316;2024-03-23T08:57:39;8.90;99.90
33139;DHT22;19501;50.948;5.316;2024-03-23T09:00:05;9.00;99.90
33139;DHT22;19501;50.948;5.316;2024-03-23T09:02:34;9.30;99.90
33139;DHT22;19501;50.948;5.316;2024-03-23T09:05:00;9.30;99.90
33139;DHT22;19501;50.948;5.316;2024-03-23T09:07:30;9.30;99.90
33139;DHT22;19501;50.948;5.316;2024-03-23T09:09:56;9.40;99.90
33139;DHT22;19501;50.948;5.316;2024-03-23T09:12:21;9.50;99.90
33139;DHT22;19501;50.948;5.316;2024-03-23T09:14:50;9.50;99.90
33139;DHT22;19501;50.948;5.316;2024-03-23T09:17:16;9.30;99.90
33139;DHT22;19501;50.948;5.316;2024-03-23T09:19:41;9.40;99.90
33139;DHT22;19501;50.948;5.316;2024-03-23T09:22:07;9.40;99.90
33139;DHT22;19501;50.948;5.316;2024-03-23T09:24:33;9.40;99.90
33139;DHT22;19501;50.948;5.316;2024-03-23T09:26:58;9.30;99.90
33139;DHT22;19501;50.948;5.316;2024-03-23T09:29:24;9.40;99.90
33139;DHT22;19501;50.948;5.316;2024-03-23T09:31:49;9.30;99.90
33139;DHT22;19501;50.948;5.316;2024-03-23T09:34:15;9.30;99.90
33139;DHT22;19501;50.948;5.316;2024-03-23T09:36:41;9.40;99.90
33139;DHT22;19501;50.948;5.316;2024-03-23T09:39:07;9.20;99.90
33139;DHT22;19501;50.948;5.316;2024-03-23T09:41:35;9.40;99.90
33139;DHT22;19501;50.948;5.316;2024-03-23T09:44:01;9.40;99.90
33139;DHT22;19501;50.948;5.316;2024-03-23T09:46:26;9.50;99.90
33139;DHT22;19501;50.948;5.316;2024-03-23T09:48:55;9.40;99.90
33139;DHT22;19501;50.948;5.316;2024-03-23T09:51:21;9.40;99.90
33139;DHT22;19501;50.948;5.316;2024-03-23T09:53:47;9.40;99.90
33139;DHT22;19501;50.948;5.316;2024-03-23T09:56:13;8.80;99.90
33139;DHT22;19501;50.948;5.316;2024-03-23T09:58:39;8.10;99.90
33139;DHT22;19501;50.948;5.316;2024-03-23T10:01:05;7.80;99.90
33139;DHT22;19501;50.948;5.316;2024-03-23T10:03:31;7.50;99.90
33139;DHT22;19501;50.948;5.316;2024-03-23T10:06:05;7.40;99.90
33139;DHT22;19501;50.948;5.316;2024-03-23T10:08:31;7.30;99.90
33139;DHT22;19501;50.948;5.316;2024-03-23T10:11:15;7.30;99.90
33139;DHT22;19501;50.948;5.316;2024-03-23T10:13:44;7.30;99.90
33139;DHT22;19501;50.948;5.316;2024-03-23T10:16:12;7.40;99.90
33139;DHT22;19501;50.948;5.316;2024-03-23T10:18:48;7.70;99.90
33139;DHT22;19501;50.948;5.316;2024-03-23T10:21:14;8.00;99.90
33139;DHT22;19501;50.948;5.316;2024-03-23T10:23:44;8.40;99.90
33139;DHT22;19501;50.948;5.316;2024-03-23T10:26:24;8.70;99.90
33139;DHT22;19501;50.948;5.316;2024-03-23T10:31:18;9.40;99.90
33139;DHT22;19501;50.948;5.316;2024-03-23T10:33:48;9.50;99.90
33139;DHT22;19501;50.948;5.316;2024-03-23T10:36:14;9.80;99.90
33139;DHT22;19501;50.948;5.316;2024-03-23T10:38:41;9.90;99.90
33139;DHT22;19501;50.948;5.316;2024-03-23T10:41:09;10.20;99.90
33139;DHT22;19501;50.948;5.316;2024-03-23T10:43:37;10.90;99.90
33139;DHT22;19501;50.948;5.316;2024-03-23T10:46:04;10.80;99.90
33139;DHT22;19501;50.948;5.316;2024-03-23T10:48:33;10.80;99.90
33139;DHT22;19501;50.948;5.316;2024-03-23T10:50:59;10.00;99.90
33139;DHT22;19501;50.948;5.316;2024-03-23T10:53:26;8.70;99.90
33139;DHT22;19501;50.948;5.316;2024-03-23T10:55:55;6.60;99.90
33139;DHT22;19501;50.948;5.316;2024-03-23T10:58:31;5.40;99.90
33139;DHT22;19501;50.948;5.316;2024-03-23T11:00:57;4.90;99.90
33139;DHT22;19501;50.948;5.316;2024-03-23T11:03:34;4.70;99.90
33139;DHT22;19501;50.948;5.316;2024-03-23T11:06:00;4.60;99.90
33139;DHT22;19501;50.948;5.316;2024-03-23T11:08:33;4.70;99.90
33139;DHT22;19501;50.948;5.316;2024-03-23T11:11:20;5.00;99.90
33139;DHT22;19501;50.948;5.316;2024-03-23T11:13:52;5.20;99.90
33139;DHT22;19501;50.948;5.316;2024-03-23T11:16:26;5.60;99.90
33139;DHT22;19501;50.948;5.316;2024-03-23T11:22:01;6.10;99.90
33139;DHT22;19501;50.948;5.316;2024-03-23T11:24:27;6.40;99.90
33139;DHT22;19501;50.948;5.316;2024-03-23T11:26:55;6.90;99.90
33139;DHT22;19501;50.948;5.316;2024-03-23T11:29:21;7.10;99.90
33139;DHT22;19501;50.948;5.316;2024-03-23T11:31:49;8.00;99.90
33139;DHT22;19501;50.948;5.316;2024-03-23T11:34:19;9.00;99.90
33139;DHT22;19501;50.948;5.316;2024-03-23T11:36:45;9.30;99.90
33139;DHT22;19501;50.948;5.316;2024-03-23T11:39:15;9.00;99.90
33139;DHT22;19501;50.948;5.316;2024-03-23T11:44:21;8.90;99.90
33139;DHT22;19501;50.948;5.316;2024-03-23T11:46:50;8.70;99.90
33139;DHT22;19501;50.948;5.316;2024-03-23T11:49:42;8.60;99.90
33139;DHT22;19501;50.948;5.316;2024-03-23T11:52:07;8.60;99.90
33139;DHT22;19501;50.948;5.316;2024-03-23T11:54:33;8.40;99.90
33139;DHT22;19501;50.948;5.316;2024-03-23T11:56:59;8.10;99.90
33139;DHT22;19501;50.948;5.316;2024-03-23T11:59:38;8.00;99.90
33139;DHT22;19501;50.948;5.316;2024-03-23T12:02:13;8.00;99.90
33139;DHT22;19501;50.948;5.316;2024-03-23T12:04:42;7.40;99.90
33139;DHT22;19501;50.948;5.316;2024-03-23T12:07:17;6.60;99.90
33139;DHT22;19501;50.948;5.316;2024-03-23T12:10:03;6.20;99.90
33139;DHT22;19501;50.948;5.316;2024-03-23T12:12:29;6.10;99.90
33139;DHT22;19501;50.948;5.316;2024-03-23T12:15:07;6.00;99.90
33139;DHT22;19501;50.948;5.316;2024-03-23T12:17:34;6.10;99.90
33139;DHT22;19501;50.948;5.316;2024-03-23T12:20:00;6.10;99.90
33139;DHT22;19501;50.948;5.316;2024-03-23T12:22:26;6.50;99.90
33139;DHT22;19501;50.948;5.316;2024-03-23T12:24:55;7.50;99.90
33139;DHT22;19501;50.948;5.316;2024-03-23T12:27:20;8.60;99.90
33139;DHT22;19501;50.948;5.316;2024-03-23T12:29:46;9.80;99.90
33139;DHT22;19501;50.948;5.316;2024-03-23T12:32:13;10.30;99.90
33139;DHT22;19501;50.948;5.316;2024-03-23T12:34:39;10.30;99.90
33139;DHT22;19501;50.948;5.316;2024-03-23T12:37:05;10.30;99.90
33139;DHT22;19501;50.948;5.316;2024-03-23T12:39:34;10.10;99.90
33139;DHT22;19501;50.948;5.316;2024-03-23T12:42:01;10.70;99.90
33139;DHT22;19501;50.948;5.316;2024-03-23T12:44:28;11.60;99.90
33139;DHT22;19501;50.948;5.316;2024-03-23T12:46:54;12.50;99.90
33139;DHT22;19501;50.948;5.316;2024-03-23T12:49:22;12.10;99.90
33139;DHT22;19501;50.948;5.316;2024-03-23T12:51:54;11.10;99.90
33139;DHT22;19501;50.948;5.316;2024-03-23T12:54:24;10.60;99.90
33139;DHT22;19501;50.948;5.316;2024-03-23T12:56:50;10.30;99.90
33139;DHT22;19501;50.948;5.316;2024-03-23T12:59:16;9.90;99.90
33139;DHT22;19501;50.948;5.316;2024-03-23T13:01:45;9.30;99.90
33139;DHT22;19501;50.948;5.316;2024-03-23T13:04:10;8.50;99.90
33139;DHT22;19501;50.948;5.316;2024-03-23T13:06:36;7.80;99.90
33139;DHT22;19501;50.948;5.316;2024-03-23T13:09:02;7.60;99.90
33139;DHT22;19501;50.948;5.316;2024-03-23T13:11:30;7.70;99.90
33139;DHT22;19501;50.948;5.316;2024-03-23T13:13:56;8.10;99.90
33139;DHT22;19501;50.948;5.316;2024-03-23T13:16:22;8.40;99.90
33139;DHT22;19501;50.948;5.316;2024-03-23T13:18:50;8.50;99.90
33139;DHT22;19501;50.948;5.316;2024-03-23T13:21:15;8.70;99.90
33139;DHT22;19501;50.948;5.316;2024-03-23T13:23:41;8.60;99.90
33139;DHT22;19501;50.948;5.316;2024-03-23T13:26:09;8.60;99.90
33139;DHT22;19501;50.948;5.316;2024-03-23T13:28:34;8.50;99.90
33139;DHT22;19501;50.948;5.316;2024-03-23T13:31:01;8.50;99.90
33139;DHT22;19501;50.948;5.316;2024-03-23T13:33:32;8.10;99.90
33139;DHT22;19501;50.948;5.316;2024-03-23T13:35:58;8.00;99.90
33139;DHT22;19501;50.948;5.316;2024-03-23T13:38:24;8.30;99.90
33139;DHT22;19501;50.948;5.316;2024-03-23T13:40:53;9.60;99.90
33139;DHT22;19501;50.948;5.316;2024-03-23T13:43:18;11.20;99.90
33139;DHT22;19501;50.948;5.316;2024-03-23T13:45:45;12.40;99.90
33139;DHT22;19501;50.948;5.316;2024-03-23T13:48:11;13.40;99.90
33139;DHT22;19501;50.948;5.316;2024-03-23T13:50:37;14.10;99.90
33139;DHT22;19501;50.948;5.316;2024-03-23T13:53:03;14.00;99.90
33139;DHT22;19501;50.948;5.316;2024-03-23T13:55:28;13.20;99.90
33139;DHT22;19501;50.948;5.316;2024-03-23T13:57:54;12.70;99.90
33139;DHT22;19501;50.948;5.316;2024-03-23T14:00:20;13.30;99.90
33139;DHT22;19501;50.948;5.316;2024-03-23T14:02:45;12.90;99.90
33139;DHT22;19501;50.948;5.316;2024-03-23T14:05:13;12.00;99.90
33139;DHT22;19501;50.948;5.316;2024-03-23T14:07:39;11.40;99.90
33139;DHT22;19501;50.948;5.316;2024-03-23T14:10:05;11.20;99.90
33139;DHT22;19501;50.948;5.316;2024-03-23T14:12:36;10.70;99.90
33139;DHT22;19501;50.948;5.316;2024-03-23T14:15:05;10.50;99.90
33139;DHT22;19501;50.948;5.316;2024-03-23T14:17:31;9.60;99.90
33139;DHT22;19501;50.948;5.316;2024-03-23T14:19:56;8.40;99.90
33139;DHT22;19501;50.948;5.316;2024-03-23T14:22:29;7.50;99.90
33139;DHT22;19501;50.948;5.316;2024-03-23T14:24:54;7.30;99.90
33139;DHT22;19501;50.948;5.316;2024-03-23T14:27:20;7.20;99.90
33139;DHT22;19501;50.948;5.316;2024-03-23T14:29:47;7.30;99.90
33139;DHT22;19501;50.948;5.316;2024-03-23T14:32:13;7.50;99.90
33139;DHT22;19501;50.948;5.316;2024-03-23T14:34:38;7.90;99.90
33139;DHT22;19501;50.948;5.316;2024-03-23T14:37:05;8.70;99.90
33139;DHT22;19501;50.948;5.316;2024-03-23T14:39:32;9.80;99.90
33139;DHT22;19501;50.948;5.316;2024-03-23T14:42:00;10.60;99.90
33139;DHT22;19501;50.948;5.316;2024-03-23T14:44:27;11.30;99.90
33139;DHT22;19501;50.948;5.316;2024-03-23T14:46:53;11.30;99.90
33139;DHT22;19501;50.948;5.316;2024-03-23T14:49:21;10.80;99.90
33139;DHT22;19501;50.948;5.316;2024-03-23T14:51:46;10.40;99.90
33139;DHT22;19501;50.948;5.316;2024-03-23T14:54:12;10.00;99.90
33139;DHT22;19501;50.948;5.316;2024-03-23T14:56:38;9.70;99.90
33139;DHT22;19501;50.948;5.316;2024-03-23T14:59:04;9.60;99.90
33139;DHT22;19501;50.948;5.316;2024-03-23T15:01:31;9.90;99.90
33139;DHT22;19501;50.948;5.316;2024-03-23T15:03:57;10.20;99.90
33139;DHT22;19501;50.948;5.316;2024-03-23T15:06:22;10.00;99.90
33139;DHT22;19501;50.948;5.316;2024-03-23T15:08:48;10.20;99.90
33139;DHT22;19501;50.948;5.316;2024-03-23T15:11:14;10.00;99.90
33139;DHT22;19501;50.948;5.316;2024-03-23T15:13:43;9.90;99.90
33139;DHT22;19501;50.948;5.316;2024-03-23T15:16:09;9.80;99.90
33139;DHT22;19501;50.948;5.316;2024-03-23T15:18:35;10.30;99.90
33139;DHT22;19501;50.948;5.316;2024-03-23T15:21:02;11.20;99.90
33139;DHT22;19501;50.948;5.316;2024-03-23T15:23:30;12.00;99.90
33139;DHT22;19501;50.948;5.316;2024-03-23T15:26:00;12.20;99.90
33139;DHT22;19501;50.948;5.316;2024-03-23T15:28:27;12.10;99.90
33139;DHT22;19501;50.948;5.316;2024-03-23T15:31:06;11.70;99.90
33139;DHT22;19501;50.948;5.316;2024-03-23T15:33:32;11.70;99.90
33139;DHT22;19501;50.948;5.316;2024-03-23T15:35:59;12.00;99.90
33139;DHT22;19501;50.948;5.316;2024-03-23T15:38:25;11.90;99.90
33139;DHT22;19501;50.948;5.316;2024-03-23T15:40:52;11.90;99.90
33139;DHT22;19501;50.948;5.316;2024-03-23T15:43:17;12.00;99.90
33139;DHT22;19501;50.948;5.316;2024-03-23T15:45:43;12.00;99.90
33139;DHT22;19501;50.948;5.316;2024-03-23T15:48:09;12.20;99.90
33139;DHT22;19501;50.948;5.316;2024-03-23T15:50:34;12.40;99.90
33139;DHT22;19501;50.948;5.316;2024-03-23T15:53:00;12.40;99.90
33139;DHT22;19501;50.948;5.316;2024-03-23T15:55:26;12.40;99.90
33139;DHT22;19501;50.948;5.316;2024-03-23T15:57:51;12.60;99.90
33139;DHT22;19501;50.948;5.316;2024-03-23T16:00:19;11.80;99.90
33139;DHT22;19501;50.948;5.316;2024-03-23T16:02:45;11.70;99.90
33139;DHT22;19501;50.948;5.316;2024-03-23T16:05:14;11.50;99.90
33139;DHT22;19501;50.948;5.316;2024-03-23T16:07:39;11.20;99.90
33139;DHT22;19501;50.948;5.316;2024-03-23T16:10:06;11.00;99.90
33139;DHT22;19501;50.948;5.316;2024-03-23T16:12:36;10.80;99.90
33139;DHT22;19501;50.948;5.316;2024-03-23T16:15:03;10.50;99.90
33139;DHT22;19501;50.948;5.316;2024-03-23T16:17:30;10.40;99.90
33139;DHT22;19501;50.948;5.316;2024-03-23T16:20:01;10.40;99.90
33139;DHT22;19501;50.948;5.316;2024-03-23T16:22:27;10.40;99.90
33139;DHT22;19501;50.948;5.316;2024-03-23T16:24:52;10.20;99.90
33139;DHT22;19501;50.948;5.316;2024-03-23T16:27:18;10.00;99.90
33139;DHT22;19501;50.948;5.316;2024-03-23T16:29:44;9.90;99.90
33139;DHT22;19501;50.948;5.316;2024-03-23T16:32:09;9.70;99.90
33139;DHT22;19501;50.948;5.316;2024-03-23T16:34:35;9.50;99.90
33139;DHT22;19501;50.948;5.316;2024-03-23T16:37:03;9.10;99.90
33139;DHT22;19501;50.948;5.316;2024-03-23T16:39:29;8.60;99.90
33139;DHT22;19501;50.948;5.316;2024-03-23T16:41:55;8.20;99.90
33139;DHT22;19501;50.948;5.316;2024-03-23T16:44:21;8.10;99.90
33139;DHT22;19501;50.948;5.316;2024-03-23T16:46:46;8.20;99.90